Detalii statie FIRST FARMS FAUREI [00001992]

Toti senzorii

Date Temperatura solului [C]Precipitatii [mm]Voltaj baterie [mV]Leaf Wetness [Min]HC Air temperature [C]HC Relative humidity [%]Punctul de roua [C]
medieminmaxsumaultimatimpmedieminmaxmediemediemin
2019-10-19 22:00:00 13.7 13.6 13.9 0 6854 11.54 10.63 12.34 100 11.4 10.6
2019-10-19 23:00:00 13.4 13.3 13.7 0 6826 10.03 8.74 10.5 100 9.9 8.7
2019-10-20 00:00:00 13.2 13.2 13.3 0 6796 8.96 8.61 9.19 100 8.9 8.6
2019-10-20 01:00:00 13 12.9 13.1 0 6806 9.58 9.27 10.05 100 9.5 9.2
2019-10-20 02:00:00 12.8 12.8 12.9 0 6786 10.41 10.14 10.84 100 10.3 10.1
2019-10-20 03:00:00 12.8 12.8 12.8 0 6776 11.37 11 11.73 100 11.3 11
2019-10-20 04:00:00 12.7 12.6 12.8 0 6776 11.85 11.77 11.94 100 11.8 11.7
2019-10-20 05:00:00 12.7 12.6 12.8 0 6776 11.99 11.87 12.09 100 11.9 11.8
2019-10-20 06:00:00 12.7 12.7 12.8 0.2 6766 11.62 11.49 11.91 100 11.5 11.4
2019-10-20 07:00:00 12.7 12.7 12.9 0 6766 11.52 11.46 11.56 100 11.4 11.4
2019-10-20 08:00:00 12.8 12.7 12.9 0 6806 11.82 11.59 12.06 100 11.7 11.5
2019-10-20 09:00:00 12.9 12.8 13 0 6962 12.36 12.14 12.6 100 12.3 12.1
2019-10-20 10:00:00 13 12.9 13.1 0 7138 13.08 12.69 13.56 100 13 12.6
2019-10-20 11:00:00 13.2 13.2 13.4 0 7196 13.83 13.52 14.32 100 13.7 13.5
2019-10-20 12:00:00 13.5 13.4 13.8 0 7206 15.31 14.45 16.76 100 15.2 14.4
2019-10-20 13:00:00 13.9 13.7 14.3 0 7196 18.08 17.26 19.94 100 18 17.2
2019-10-20 14:00:00 14.4 14.2 14.7 0 7196 21.84 20.39 23.04 92.52 20.3 18.3
2019-10-20 15:00:00 15 14.7 15.3 0 7196 23.7 23.3 24.17 66.28 16.8 16
2019-10-20 16:00:00 15.5 15.2 15.8 0 7176 23.91 23.56 24.17 58.14 15 13.9
2019-10-20 17:00:00 15.8 15.7 15.9 0 6972 22.61 21.28 23.52 57.8 13.7 13.4
2019-10-20 18:00:00 15.8 15.7 15.9 0 6874 18.67 16.45 20.93 77.53 14.3 13.1
2019-10-20 19:00:00 15.6 15.5 15.8 0 6874 15.71 14.47 16.89 100 15.6 14.4
2019-10-20 20:00:00 15.3 15.2 15.7 0 6854 14.9 14.2 15.45 100 14.8 14.2
2019-10-20 21:00:00 15 14.8 15.3 0 6864 13.9 13.54 14.61 100 13.8 13.5
2019-10-20 22:00:00 14.7 14.6 15 0 6844 13.16 12.98 13.46 100 13.1 12.9
2019-10-20 23:00:00 14.4 14.2 14.6 0 6844 12.35 10.61 13.19 100 12.3 10.6
2019-10-21 00:00:00 14.1 13.9 14.4 0 6834 10.02 9.68 10.37 100 9.9 9.6
2019-10-21 01:00:00 13.9 13.6 14.1 0.2 6816 9.9 9.67 10.21 100 9.8 9.6
2019-10-21 02:00:00 13.6 13.4 13.8 0 6806 9.28 8.9 9.65 100 9.2 8.9
2019-10-21 03:00:00 13.4 13.3 13.6 0 6776 9.14 8.79 9.62 100 9 8.7
2019-10-21 04:00:00 13.2 13.1 13.3 0 6776 10.39 9.79 11.24 100 10.3 9.7
2019-10-21 05:00:00 13.1 13 13.2 0 6786 11.31 10.96 11.66 100 11.2 10.9
2019-10-21 06:00:00 13 13 13.1 0 6776 11.83 11.72 11.9 100 11.7 11.7
2019-10-21 07:00:00 13 13 13.1 0 6766 11.86 11.8 11.93 100 11.8 11.8
2019-10-21 08:00:00 13.1 13.1 13.2 0 6806 11.87 11.8 11.99 100 11.8 11.8
2019-10-21 09:00:00 13.1 13 13.3 0.2 6952 12.08 11.96 12.18 100 12 11.9
2019-10-21 10:00:00 13.2 13.1 13.4 0 7070 12.45 12.24 12.74 100 12.4 12.2
2019-10-21 11:00:00 13.5 13.4 13.6 0 7158 13.1 12.9 13.41 100 13 12.9
2019-10-21 12:00:00 13.7 13.6 13.9 0 7186 13.54 13.28 13.85 100 13.4 13.2
2019-10-21 13:00:00 14 13.9 14.2 0 7186 13.67 13.35 13.99 100 13.6 13.3
2019-10-21 14:00:00 14.3 14.2 14.5 0 7196 15.82 14.21 16.88 100 15.7 14.2